sensor_id;sensor_type;location;lat;lon;timestamp;P1;durP1;ratioP1;P2;durP2;ratioP2
22786;SDS011;63134;52.020;4.714;2023-12-04T00:01:54;20.48;;;13.20;;
22786;SDS011;63134;52.020;4.714;2023-12-04T00:04:40;23.23;;;14.35;;
22786;SDS011;63134;52.020;4.714;2023-12-04T00:07:26;22.20;;;13.52;;
22786;SDS011;63134;52.020;4.714;2023-12-04T00:10:11;18.27;;;11.85;;
22786;SDS011;63134;52.020;4.714;2023-12-04T00:12:57;20.23;;;12.88;;
22786;SDS011;63134;52.020;4.714;2023-12-04T00:15:44;21.30;;;13.50;;
22786;SDS011;63134;52.020;4.714;2023-12-04T00:18:29;20.83;;;12.13;;
22786;SDS011;63134;52.020;4.714;2023-12-04T00:21:14;21.65;;;12.57;;
22786;SDS011;63134;52.020;4.714;2023-12-04T00:24:04;19.30;;;12.18;;
22786;SDS011;63134;52.020;4.714;2023-12-04T00:26:50;18.98;;;12.63;;
22786;SDS011;63134;52.020;4.714;2023-12-04T00:29:36;19.05;;;11.40;;
22786;SDS011;63134;52.020;4.714;2023-12-04T00:32:22;18.70;;;11.65;;
22786;SDS011;63134;52.020;4.714;2023-12-04T00:35:08;16.80;;;10.88;;
22786;SDS011;63134;52.020;4.714;2023-12-04T00:37:56;18.95;;;11.90;;
22786;SDS011;63134;52.020;4.714;2023-12-04T00:40:42;19.65;;;12.20;;
22786;SDS011;63134;52.020;4.714;2023-12-04T00:43:28;18.92;;;11.07;;
22786;SDS011;63134;52.020;4.714;2023-12-04T00:46:15;19.10;;;12.10;;
22786;SDS011;63134;52.020;4.714;2023-12-04T00:49:00;19.33;;;11.95;;
22786;SDS011;63134;52.020;4.714;2023-12-04T00:51:46;20.63;;;12.50;;
22786;SDS011;63134;52.020;4.714;2023-12-04T00:54:32;17.52;;;11.80;;
22786;SDS011;63134;52.020;4.714;2023-12-04T00:57:18;19.98;;;12.18;;
22786;SDS011;63134;52.020;4.714;2023-12-04T01:00:04;19.20;;;12.27;;
22786;SDS011;63134;52.020;4.714;2023-12-04T01:02:51;17.80;;;11.45;;
22786;SDS011;63134;52.020;4.714;2023-12-04T01:05:37;16.48;;;11.40;;
22786;SDS011;63134;52.020;4.714;2023-12-04T01:08:22;19.05;;;12.18;;
22786;SDS011;63134;52.020;4.714;2023-12-04T01:11:09;18.58;;;11.63;;
22786;SDS011;63134;52.020;4.714;2023-12-04T01:13:54;19.77;;;10.77;;
22786;SDS011;63134;52.020;4.714;2023-12-04T01:16:40;19.00;;;12.30;;
22786;SDS011;63134;52.020;4.714;2023-12-04T01:19:26;17.52;;;11.50;;
22786;SDS011;63134;52.020;4.714;2023-12-04T01:22:12;17.83;;;10.23;;
22786;SDS011;63134;52.020;4.714;2023-12-04T01:24:57;18.90;;;11.68;;
22786;SDS011;63134;52.020;4.714;2023-12-04T01:27:47;20.92;;;12.63;;
22786;SDS011;63134;52.020;4.714;2023-12-04T01:30:33;19.23;;;12.10;;
22786;SDS011;63134;52.020;4.714;2023-12-04T01:33:19;19.45;;;12.48;;
22786;SDS011;63134;52.020;4.714;2023-12-04T01:36:05;19.35;;;11.98;;
22786;SDS011;63134;52.020;4.714;2023-12-04T01:38:51;19.23;;;11.68;;
22786;SDS011;63134;52.020;4.714;2023-12-04T01:41:36;21.35;;;12.20;;
22786;SDS011;63134;52.020;4.714;2023-12-04T01:44:22;18.45;;;11.48;;
22786;SDS011;63134;52.020;4.714;2023-12-04T01:47:08;19.15;;;11.55;;
22786;SDS011;63134;52.020;4.714;2023-12-04T01:49:54;17.02;;;11.38;;
22786;SDS011;63134;52.020;4.714;2023-12-04T01:52:40;16.40;;;10.57;;
22786;SDS011;63134;52.020;4.714;2023-12-04T01:55:26;19.92;;;12.40;;
22786;SDS011;63134;52.020;4.714;2023-12-04T01:58:13;17.10;;;11.38;;
22786;SDS011;63134;52.020;4.714;2023-12-04T02:00:59;16.90;;;10.57;;
22786;SDS011;63134;52.020;4.714;2023-12-04T02:03:44;16.23;;;11.13;;
22786;SDS011;63134;52.020;4.714;2023-12-04T02:06:31;18.58;;;11.50;;
22786;SDS011;63134;52.020;4.714;2023-12-04T02:09:17;22.35;;;12.95;;
22786;SDS011;63134;52.020;4.714;2023-12-04T02:12:06;18.95;;;12.75;;
22786;SDS011;63134;52.020;4.714;2023-12-04T02:14:52;17.90;;;11.70;;
22786;SDS011;63134;52.020;4.714;2023-12-04T02:17:37;19.27;;;11.88;;
22786;SDS011;63134;52.020;4.714;2023-12-04T02:20:31;18.65;;;11.60;;
22786;SDS011;63134;52.020;4.714;2023-12-04T02:23:18;20.80;;;12.70;;
22786;SDS011;63134;52.020;4.714;2023-12-04T02:26:14;18.15;;;11.70;;
22786;SDS011;63134;52.020;4.714;2023-12-04T02:29:08;18.70;;;11.18;;
22786;SDS011;63134;52.020;4.714;2023-12-04T02:32:02;16.58;;;10.70;;
22786;SDS011;63134;52.020;4.714;2023-12-04T02:34:50;19.02;;;12.80;;
22786;SDS011;63134;52.020;4.714;2023-12-04T02:37:39;18.35;;;10.90;;
22786;SDS011;63134;52.020;4.714;2023-12-04T02:40:26;19.17;;;11.65;;
22786;SDS011;63134;52.020;4.714;2023-12-04T02:43:12;17.08;;;11.40;;
22786;SDS011;63134;52.020;4.714;2023-12-04T02:46:00;13.45;;;9.20;;
22786;SDS011;63134;52.020;4.714;2023-12-04T02:48:46;14.95;;;10.00;;
22786;SDS011;63134;52.020;4.714;2023-12-04T02:51:31;15.27;;;9.93;;
22786;SDS011;63134;52.020;4.714;2023-12-04T02:54:17;17.10;;;11.30;;
22786;SDS011;63134;52.020;4.714;2023-12-04T02:57:02;17.67;;;10.77;;
22786;SDS011;63134;52.020;4.714;2023-12-04T02:59:49;17.17;;;10.95;;
22786;SDS011;63134;52.020;4.714;2023-12-04T03:02:35;20.17;;;11.93;;
22786;SDS011;63134;52.020;4.714;2023-12-04T03:05:21;18.42;;;11.20;;
22786;SDS011;63134;52.020;4.714;2023-12-04T03:08:06;18.90;;;11.80;;
22786;SDS011;63134;52.020;4.714;2023-12-04T03:10:52;17.30;;;11.43;;
22786;SDS011;63134;52.020;4.714;2023-12-04T03:13:40;16.98;;;11.25;;
22786;SDS011;63134;52.020;4.714;2023-12-04T03:16:26;16.98;;;11.40;;
22786;SDS011;63134;52.020;4.714;2023-12-04T03:19:12;17.77;;;11.23;;
22786;SDS011;63134;52.020;4.714;2023-12-04T03:21:59;17.40;;;11.57;;
22786;SDS011;63134;52.020;4.714;2023-12-04T03:24:49;17.38;;;10.63;;
22786;SDS011;63134;52.020;4.714;2023-12-04T03:27:35;19.80;;;11.50;;
22786;SDS011;63134;52.020;4.714;2023-12-04T03:30:21;14.93;;;11.10;;
22786;SDS011;63134;52.020;4.714;2023-12-04T03:33:07;19.00;;;11.23;;
22786;SDS011;63134;52.020;4.714;2023-12-04T03:35:59;19.92;;;12.00;;
22786;SDS011;63134;52.020;4.714;2023-12-04T03:38:46;18.60;;;11.00;;
22786;SDS011;63134;52.020;4.714;2023-12-04T03:41:33;15.93;;;10.27;;
22786;SDS011;63134;52.020;4.714;2023-12-04T03:44:19;15.65;;;11.10;;
22786;SDS011;63134;52.020;4.714;2023-12-04T03:47:06;17.30;;;10.45;;
22786;SDS011;63134;52.020;4.714;2023-12-04T03:49:52;19.17;;;11.68;;
22786;SDS011;63134;52.020;4.714;2023-12-04T03:52:41;17.70;;;11.02;;
22786;SDS011;63134;52.020;4.714;2023-12-04T03:55:27;17.05;;;11.13;;
22786;SDS011;63134;52.020;4.714;2023-12-04T03:58:12;18.80;;;11.07;;
22786;SDS011;63134;52.020;4.714;2023-12-04T04:01:03;20.85;;;11.98;;
22786;SDS011;63134;52.020;4.714;2023-12-04T04:03:49;17.77;;;10.88;;
22786;SDS011;63134;52.020;4.714;2023-12-04T04:06:36;19.65;;;11.55;;
22786;SDS011;63134;52.020;4.714;2023-12-04T04:09:23;16.95;;;11.55;;
22786;SDS011;63134;52.020;4.714;2023-12-04T04:12:11;17.27;;;11.13;;
22786;SDS011;63134;52.020;4.714;2023-12-04T04:14:57;17.83;;;11.13;;
22786;SDS011;63134;52.020;4.714;2023-12-04T04:17:43;17.98;;;11.18;;
22786;SDS011;63134;52.020;4.714;2023-12-04T04:20:31;17.15;;;10.27;;
22786;SDS011;63134;52.020;4.714;2023-12-04T04:23:17;19.13;;;11.00;;
22786;SDS011;63134;52.020;4.714;2023-12-04T04:26:05;17.05;;;10.73;;
22786;SDS011;63134;52.020;4.714;2023-12-04T04:28:52;15.27;;;10.15;;
22786;SDS011;63134;52.020;4.714;2023-12-04T04:31:38;16.60;;;9.85;;
22786;SDS011;63134;52.020;4.714;2023-12-04T04:34:27;16.73;;;10.63;;
22786;SDS011;63134;52.020;4.714;2023-12-04T04:37:13;14.38;;;9.65;;
22786;SDS011;63134;52.020;4.714;2023-12-04T04:40:00;16.02;;;10.50;;
22786;SDS011;63134;52.020;4.714;2023-12-04T04:42:46;15.75;;;10.65;;
22786;SDS011;63134;52.020;4.714;2023-12-04T04:45:33;15.60;;;9.77;;
22786;SDS011;63134;52.020;4.714;2023-12-04T04:48:20;14.50;;;9.45;;
22786;SDS011;63134;52.020;4.714;2023-12-04T04:51:05;15.50;;;10.30;;
22786;SDS011;63134;52.020;4.714;2023-12-04T04:53:51;16.00;;;10.40;;
22786;SDS011;63134;52.020;4.714;2023-12-04T04:56:37;14.73;;;9.60;;
22786;SDS011;63134;52.020;4.714;2023-12-04T04:59:22;16.38;;;10.60;;
22786;SDS011;63134;52.020;4.714;2023-12-04T05:02:08;16.45;;;10.25;;
22786;SDS011;63134;52.020;4.714;2023-12-04T05:04:54;16.13;;;9.82;;
22786;SDS011;63134;52.020;4.714;2023-12-04T05:07:39;15.07;;;9.77;;
22786;SDS011;63134;52.020;4.714;2023-12-04T05:10:25;14.98;;;9.98;;
22786;SDS011;63134;52.020;4.714;2023-12-04T05:13:10;16.27;;;10.70;;
22786;SDS011;63134;52.020;4.714;2023-12-04T05:15:56;15.98;;;10.07;;
22786;SDS011;63134;52.020;4.714;2023-12-04T05:18:43;16.75;;;10.70;;
22786;SDS011;63134;52.020;4.714;2023-12-04T05:21:32;16.83;;;10.75;;
22786;SDS011;63134;52.020;4.714;2023-12-04T05:24:18;16.50;;;10.85;;
22786;SDS011;63134;52.020;4.714;2023-12-04T05:27:03;15.13;;;9.63;;
22786;SDS011;63134;52.020;4.714;2023-12-04T05:29:49;17.98;;;10.32;;
22786;SDS011;63134;52.020;4.714;2023-12-04T05:32:35;17.65;;;10.35;;
22786;SDS011;63134;52.020;4.714;2023-12-04T05:35:21;18.33;;;10.77;;
22786;SDS011;63134;52.020;4.714;2023-12-04T05:38:06;17.00;;;10.13;;
22786;SDS011;63134;52.020;4.714;2023-12-04T05:40:53;14.27;;;9.50;;
22786;SDS011;63134;52.020;4.714;2023-12-04T05:43:39;15.48;;;9.45;;
22786;SDS011;63134;52.020;4.714;2023-12-04T05:46:25;15.48;;;9.57;;
22786;SDS011;63134;52.020;4.714;2023-12-04T05:49:11;16.58;;;10.70;;
22786;SDS011;63134;52.020;4.714;2023-12-04T05:51:56;15.40;;;9.70;;
22786;SDS011;63134;52.020;4.714;2023-12-04T05:54:42;16.17;;;9.63;;
22786;SDS011;63134;52.020;4.714;2023-12-04T05:57:28;15.68;;;9.55;;
22786;SDS011;63134;52.020;4.714;2023-12-04T06:00:14;16.00;;;9.95;;
22786;SDS011;63134;52.020;4.714;2023-12-04T06:03:00;13.48;;;9.38;;
22786;SDS011;63134;52.020;4.714;2023-12-04T06:05:46;12.80;;;9.45;;
22786;SDS011;63134;52.020;4.714;2023-12-04T06:08:32;13.48;;;9.07;;
22786;SDS011;63134;52.020;4.714;2023-12-04T06:11:18;14.57;;;9.50;;
22786;SDS011;63134;52.020;4.714;2023-12-04T06:14:06;16.73;;;10.10;;
22786;SDS011;63134;52.020;4.714;2023-12-04T06:16:52;14.70;;;9.95;;
22786;SDS011;63134;52.020;4.714;2023-12-04T06:19:39;12.57;;;9.05;;
22786;SDS011;63134;52.020;4.714;2023-12-04T06:22:25;12.02;;;8.95;;
22786;SDS011;63134;52.020;4.714;2023-12-04T06:25:11;14.98;;;9.18;;
22786;SDS011;63134;52.020;4.714;2023-12-04T06:28:01;14.90;;;9.63;;
22786;SDS011;63134;52.020;4.714;2023-12-04T06:30:48;13.35;;;8.77;;
22786;SDS011;63134;52.020;4.714;2023-12-04T06:33:38;13.20;;;8.93;;
22786;SDS011;63134;52.020;4.714;2023-12-04T06:36:27;13.73;;;9.35;;
22786;SDS011;63134;52.020;4.714;2023-12-04T06:39:19;13.40;;;8.90;;
22786;SDS011;63134;52.020;4.714;2023-12-04T06:42:06;13.55;;;9.02;;
22786;SDS011;63134;52.020;4.714;2023-12-04T06:44:56;12.45;;;8.15;;
22786;SDS011;63134;52.020;4.714;2023-12-04T06:47:43;14.70;;;9.43;;
22786;SDS011;63134;52.020;4.714;2023-12-04T06:50:33;12.60;;;8.85;;
22786;SDS011;63134;52.020;4.714;2023-12-04T06:53:18;13.60;;;9.57;;
22786;SDS011;63134;52.020;4.714;2023-12-04T06:56:04;11.52;;;8.20;;
22786;SDS011;63134;52.020;4.714;2023-12-04T06:58:56;12.43;;;8.90;;
22786;SDS011;63134;52.020;4.714;2023-12-04T07:01:41;14.20;;;9.43;;
22786;SDS011;63134;52.020;4.714;2023-12-04T07:04:32;12.98;;;9.13;;
22786;SDS011;63134;52.020;4.714;2023-12-04T07:07:19;12.73;;;8.15;;
22786;SDS011;63134;52.020;4.714;2023-12-04T07:10:04;12.38;;;7.90;;
22786;SDS011;63134;52.020;4.714;2023-12-04T07:12:50;12.25;;;8.00;;
22786;SDS011;63134;52.020;4.714;2023-12-04T07:15:36;12.05;;;7.95;;
22786;SDS011;63134;52.020;4.714;2023-12-04T07:18:21;12.82;;;8.55;;
22786;SDS011;63134;52.020;4.714;2023-12-04T07:21:07;14.35;;;9.23;;
22786;SDS011;63134;52.020;4.714;2023-12-04T07:23:53;12.50;;;8.48;;
22786;SDS011;63134;52.020;4.714;2023-12-04T07:26:38;10.90;;;7.85;;
22786;SDS011;63134;52.020;4.714;2023-12-04T07:29:27;11.63;;;8.25;;
22786;SDS011;63134;52.020;4.714;2023-12-04T07:32:14;12.63;;;7.80;;
22786;SDS011;63134;52.020;4.714;2023-12-04T07:35:05;13.25;;;9.00;;
22786;SDS011;63134;52.020;4.714;2023-12-04T07:37:54;14.15;;;9.55;;
22786;SDS011;63134;52.020;4.714;2023-12-04T07:40:43;14.07;;;9.43;;
22786;SDS011;63134;52.020;4.714;2023-12-04T07:43:29;12.77;;;8.90;;
22786;SDS011;63134;52.020;4.714;2023-12-04T07:46:15;13.02;;;9.07;;
22786;SDS011;63134;52.020;4.714;2023-12-04T07:49:06;11.25;;;8.50;;
22786;SDS011;63134;52.020;4.714;2023-12-04T07:51:53;12.48;;;9.00;;
22786;SDS011;63134;52.020;4.714;2023-12-04T07:54:41;12.07;;;8.50;;
22786;SDS011;63134;52.020;4.714;2023-12-04T07:57:30;12.23;;;8.88;;
22786;SDS011;63134;52.020;4.714;2023-12-04T08:00:16;12.73;;;8.90;;
22786;SDS011;63134;52.020;4.714;2023-12-04T08:03:09;11.13;;;8.43;;
22786;SDS011;63134;52.020;4.714;2023-12-04T08:06:02;10.27;;;7.45;;
22786;SDS011;63134;52.020;4.714;2023-12-04T08:08:48;10.10;;;8.05;;
22786;SDS011;63134;52.020;4.714;2023-12-04T08:11:34;11.05;;;8.35;;
22786;SDS011;63134;52.020;4.714;2023-12-04T08:14:19;11.35;;;8.68;;
22786;SDS011;63134;52.020;4.714;2023-12-04T08:17:05;10.10;;;7.85;;
22786;SDS011;63134;52.020;4.714;2023-12-04T08:19:52;12.30;;;8.75;;
22786;SDS011;63134;52.020;4.714;2023-12-04T08:22:40;13.65;;;8.60;;
22786;SDS011;63134;52.020;4.714;2023-12-04T08:25:28;12.00;;;8.82;;
22786;SDS011;63134;52.020;4.714;2023-12-04T08:28:14;11.40;;;8.68;;
22786;SDS011;63134;52.020;4.714;2023-12-04T08:31:00;12.23;;;8.40;;
22786;SDS011;63134;52.020;4.714;2023-12-04T08:33:46;11.25;;;8.23;;
22786;SDS011;63134;52.020;4.714;2023-12-04T08:36:34;10.05;;;7.43;;
22786;SDS011;63134;52.020;4.714;2023-12-04T08:39:30;9.85;;;7.78;;
22786;SDS011;63134;52.020;4.714;2023-12-04T08:42:19;11.88;;;8.50;;
22786;SDS011;63134;52.020;4.714;2023-12-04T08:45:09;10.60;;;7.13;;
22786;SDS011;63134;52.020;4.714;2023-12-04T08:47:54;10.75;;;7.82;;
22786;SDS011;63134;52.020;4.714;2023-12-04T08:50:42;10.55;;;7.78;;
22786;SDS011;63134;52.020;4.714;2023-12-04T08:53:27;10.93;;;7.57;;
22786;SDS011;63134;52.020;4.714;2023-12-04T08:56:13;9.80;;;7.72;;
22786;SDS011;63134;52.020;4.714;2023-12-04T08:59:14;10.18;;;7.68;;
22786;SDS011;63134;52.020;4.714;2023-12-04T09:02:01;10.60;;;7.10;;
22786;SDS011;63134;52.020;4.714;2023-12-04T09:04:50;9.55;;;7.13;;
22786;SDS011;63134;52.020;4.714;2023-12-04T09:07:36;8.60;;;6.28;;
22786;SDS011;63134;52.020;4.714;2023-12-04T09:10:25;9.60;;;6.75;;
22786;SDS011;63134;52.020;4.714;2023-12-04T09:13:30;10.05;;;7.13;;
22786;SDS011;63134;52.020;4.714;2023-12-04T09:16:21;9.43;;;7.40;;
22786;SDS011;63134;52.020;4.714;2023-12-04T09:19:06;7.90;;;6.35;;
22786;SDS011;63134;52.020;4.714;2023-12-04T09:21:52;10.02;;;7.50;;
22786;SDS011;63134;52.020;4.714;2023-12-04T09:24:53;8.77;;;6.43;;
22786;SDS011;63134;52.020;4.714;2023-12-04T09:27:38;9.35;;;7.00;;
22786;SDS011;63134;52.020;4.714;2023-12-04T09:30:25;10.85;;;7.25;;
22786;SDS011;63134;52.020;4.714;2023-12-04T09:33:11;8.25;;;6.28;;
22786;SDS011;63134;52.020;4.714;2023-12-04T09:35:59;8.93;;;6.60;;
22786;SDS011;63134;52.020;4.714;2023-12-04T09:38:46;7.82;;;6.22;;
22786;SDS011;63134;52.020;4.714;2023-12-04T09:41:31;8.15;;;6.70;;
22786;SDS011;63134;52.020;4.714;2023-12-04T09:44:18;8.93;;;6.72;;
22786;SDS011;63134;52.020;4.714;2023-12-04T09:47:08;9.50;;;6.53;;
22786;SDS011;63134;52.020;4.714;2023-12-04T09:49:55;8.63;;;6.80;;
22786;SDS011;63134;52.020;4.714;2023-12-04T09:52:43;7.50;;;6.00;;
22786;SDS011;63134;52.020;4.714;2023-12-04T09:55:29;10.85;;;6.45;;
22786;SDS011;63134;52.020;4.714;2023-12-04T09:58:16;10.18;;;6.40;;
22786;SDS011;63134;52.020;4.714;2023-12-04T10:01:04;8.57;;;6.18;;
22786;SDS011;63134;52.020;4.714;2023-12-04T10:03:57;8.50;;;6.53;;
22786;SDS011;63134;52.020;4.714;2023-12-04T10:06:43;7.53;;;5.90;;
22786;SDS011;63134;52.020;4.714;2023-12-04T10:09:30;8.35;;;6.05;;
22786;SDS011;63134;52.020;4.714;2023-12-04T10:12:18;8.93;;;6.82;;
22786;SDS011;63134;52.020;4.714;2023-12-04T10:15:11;8.90;;;6.70;;
22786;SDS011;63134;52.020;4.714;2023-12-04T10:17:59;7.70;;;6.18;;
22786;SDS011;63134;52.020;4.714;2023-12-04T10:20:52;7.97;;;5.70;;
22786;SDS011;63134;52.020;4.714;2023-12-04T10:23:40;8.55;;;5.80;;
22786;SDS011;63134;52.020;4.714;2023-12-04T10:26:28;7.35;;;6.32;;
22786;SDS011;63134;52.020;4.714;2023-12-04T10:29:14;7.43;;;5.40;;
22786;SDS011;63134;52.020;4.714;2023-12-04T10:32:00;7.20;;;5.22;;
22786;SDS011;63134;52.020;4.714;2023-12-04T10:34:48;8.43;;;6.20;;
22786;SDS011;63134;52.020;4.714;2023-12-04T10:37:36;7.22;;;5.80;;
22786;SDS011;63134;52.020;4.714;2023-12-04T10:40:22;8.18;;;5.68;;
22786;SDS011;63134;52.020;4.714;2023-12-04T10:45:56;7.10;;;5.78;;
22786;SDS011;63134;52.020;4.714;2023-12-04T10:48:41;8.55;;;5.97;;
22786;SDS011;63134;52.020;4.714;2023-12-04T10:51:30;7.03;;;5.38;;
22786;SDS011;63134;52.020;4.714;2023-12-04T10:54:15;6.75;;;5.80;;
22786;SDS011;63134;52.020;4.714;2023-12-04T10:57:04;10.43;;;6.15;;
22786;SDS011;63134;52.020;4.714;2023-12-04T10:59:50;9.32;;;6.40;;
22786;SDS011;63134;52.020;4.714;2023-12-04T11:02:42;6.65;;;5.50;;
22786;SDS011;63134;52.020;4.714;2023-12-04T11:05:33;6.88;;;5.18;;
22786;SDS011;63134;52.020;4.714;2023-12-04T11:08:25;6.90;;;5.70;;
22786;SDS011;63134;52.020;4.714;2023-12-04T11:11:22;7.20;;;5.75;;
22786;SDS011;63134;52.020;4.714;2023-12-04T11:14:12;6.80;;;5.00;;
22786;SDS011;63134;52.020;4.714;2023-12-04T11:17:04;8.73;;;5.63;;
22786;SDS011;63134;52.020;4.714;2023-12-04T11:20:02;6.95;;;5.55;;
22786;SDS011;63134;52.020;4.714;2023-12-04T11:22:55;6.72;;;5.70;;
22786;SDS011;63134;52.020;4.714;2023-12-04T11:25:43;7.38;;;5.93;;
22786;SDS011;63134;52.020;4.714;2023-12-04T11:28:32;8.73;;;6.38;;
22786;SDS011;63134;52.020;4.714;2023-12-04T11:31:20;6.78;;;5.43;;
22786;SDS011;63134;52.020;4.714;2023-12-04T11:34:07;7.13;;;5.40;;
22786;SDS011;63134;52.020;4.714;2023-12-04T11:36:57;7.95;;;6.22;;
22786;SDS011;63134;52.020;4.714;2023-12-04T11:39:45;8.30;;;6.45;;
22786;SDS011;63134;52.020;4.714;2023-12-04T11:42:33;8.55;;;6.15;;
22786;SDS011;63134;52.020;4.714;2023-12-04T11:45:19;6.68;;;5.65;;
22786;SDS011;63134;52.020;4.714;2023-12-04T11:48:08;7.55;;;5.88;;
22786;SDS011;63134;52.020;4.714;2023-12-04T11:50:56;7.22;;;5.38;;
22786;SDS011;63134;52.020;4.714;2023-12-04T11:53:43;6.72;;;5.63;;
22786;SDS011;63134;52.020;4.714;2023-12-04T11:56:29;8.32;;;5.78;;
22786;SDS011;63134;52.020;4.714;2023-12-04T11:59:17;7.05;;;5.63;;
22786;SDS011;63134;52.020;4.714;2023-12-04T12:02:10;8.95;;;6.10;;
22786;SDS011;63134;52.020;4.714;2023-12-04T12:04:56;8.40;;;6.13;;
22786;SDS011;63134;52.020;4.714;2023-12-04T12:07:43;7.75;;;5.85;;
22786;SDS011;63134;52.020;4.714;2023-12-04T12:10:31;8.40;;;5.65;;
22786;SDS011;63134;52.020;4.714;2023-12-04T12:13:18;6.53;;;5.18;;
22786;SDS011;63134;52.020;4.714;2023-12-04T12:16:04;6.22;;;5.13;;
22786;SDS011;63134;52.020;4.714;2023-12-04T12:18:50;7.60;;;5.35;;
22786;SDS011;63134;52.020;4.714;2023-12-04T12:21:36;7.50;;;5.68;;
22786;SDS011;63134;52.020;4.714;2023-12-04T12:24:23;7.90;;;5.75;;
22786;SDS011;63134;52.020;4.714;2023-12-04T12:27:12;10.60;;;5.97;;
22786;SDS011;63134;52.020;4.714;2023-12-04T12:29:58;8.63;;;6.45;;
22786;SDS011;63134;52.020;4.714;2023-12-04T12:32:46;7.95;;;5.97;;
22786;SDS011;63134;52.020;4.714;2023-12-04T12:35:33;7.72;;;6.00;;
22786;SDS011;63134;52.020;4.714;2023-12-04T12:38:24;10.55;;;5.80;;
22786;SDS011;63134;52.020;4.714;2023-12-04T12:41:10;8.93;;;5.90;;
22786;SDS011;63134;52.020;4.714;2023-12-04T12:43:57;9.25;;;6.47;;
22786;SDS011;63134;52.020;4.714;2023-12-04T12:46:46;8.63;;;6.40;;
22786;SDS011;63134;52.020;4.714;2023-12-04T12:49:34;8.13;;;6.25;;
22786;SDS011;63134;52.020;4.714;2023-12-04T12:52:26;8.02;;;6.13;;
22786;SDS011;63134;52.020;4.714;2023-12-04T12:55:21;7.97;;;6.25;;
22786;SDS011;63134;52.020;4.714;2023-12-04T12:58:09;7.70;;;6.05;;
22786;SDS011;63134;52.020;4.714;2023-12-04T13:00:55;8.95;;;6.70;;
22786;SDS011;63134;52.020;4.714;2023-12-04T13:03:44;9.00;;;6.82;;
22786;SDS011;63134;52.020;4.714;2023-12-04T13:06:32;9.73;;;6.68;;
22786;SDS011;63134;52.020;4.714;2023-12-04T13:09:23;10.93;;;7.55;;
22786;SDS011;63134;52.020;4.714;2023-12-04T13:12:09;9.90;;;7.85;;
22786;SDS011;63134;52.020;4.714;2023-12-04T13:14:55;9.10;;;7.22;;
22786;SDS011;63134;52.020;4.714;2023-12-04T13:17:43;8.38;;;7.15;;
22786;SDS011;63134;52.020;4.714;2023-12-04T13:20:30;10.30;;;7.57;;
22786;SDS011;63134;52.020;4.714;2023-12-04T13:23:15;10.18;;;7.90;;
22786;SDS011;63134;52.020;4.714;2023-12-04T13:26:03;10.73;;;7.68;;
22786;SDS011;63134;52.020;4.714;2023-12-04T13:28:50;8.88;;;6.88;;
22786;SDS011;63134;52.020;4.714;2023-12-04T13:31:39;10.10;;;7.15;;
22786;SDS011;63134;52.020;4.714;2023-12-04T13:34:26;11.35;;;7.35;;
22786;SDS011;63134;52.020;4.714;2023-12-04T13:37:11;10.60;;;7.90;;
22786;SDS011;63134;52.020;4.714;2023-12-04T13:39:57;10.38;;;7.22;;
22786;SDS011;63134;52.020;4.714;2023-12-04T13:42:43;8.65;;;6.72;;
22786;SDS011;63134;52.020;4.714;2023-12-04T13:45:47;9.95;;;7.22;;
22786;SDS011;63134;52.020;4.714;2023-12-04T13:48:32;9.73;;;7.10;;
22786;SDS011;63134;52.020;4.714;2023-12-04T13:51:18;8.63;;;6.78;;
22786;SDS011;63134;52.020;4.714;2023-12-04T13:54:04;8.70;;;6.30;;
22786;SDS011;63134;52.020;4.714;2023-12-04T13:57:02;11.27;;;7.40;;
22786;SDS011;63134;52.020;4.714;2023-12-04T13:59:49;10.18;;;7.78;;
22786;SDS011;63134;52.020;4.714;2023-12-04T14:02:35;9.82;;;8.00;;
22786;SDS011;63134;52.020;4.714;2023-12-04T14:05:22;9.25;;;7.47;;
22786;SDS011;63134;52.020;4.714;2023-12-04T14:08:08;9.60;;;6.97;;
22786;SDS011;63134;52.020;4.714;2023-12-04T14:10:56;10.38;;;7.50;;
22786;SDS011;63134;52.020;4.714;2023-12-04T14:13:42;10.05;;;7.13;;
22786;SDS011;63134;52.020;4.714;2023-12-04T14:16:31;10.00;;;7.35;;
22786;SDS011;63134;52.020;4.714;2023-12-04T14:19:16;9.82;;;7.82;;
22786;SDS011;63134;52.020;4.714;2023-12-04T14:22:06;9.85;;;7.32;;
22786;SDS011;63134;52.020;4.714;2023-12-04T14:24:52;11.10;;;7.63;;
22786;SDS011;63134;52.020;4.714;2023-12-04T14:27:38;10.20;;;8.15;;
22786;SDS011;63134;52.020;4.714;2023-12-04T14:30:34;12.80;;;8.93;;
22786;SDS011;63134;52.020;4.714;2023-12-04T14:33:21;11.40;;;8.27;;
22786;SDS011;63134;52.020;4.714;2023-12-04T14:36:09;10.82;;;8.82;;
22786;SDS011;63134;52.020;4.714;2023-12-04T14:38:58;11.82;;;8.40;;
22786;SDS011;63134;52.020;4.714;2023-12-04T14:41:45;11.43;;;8.25;;
22786;SDS011;63134;52.020;4.714;2023-12-04T14:44:31;11.00;;;7.75;;
22786;SDS011;63134;52.020;4.714;2023-12-04T14:47:20;9.43;;;7.38;;
22786;SDS011;63134;52.020;4.714;2023-12-04T14:50:15;9.57;;;7.47;;
22786;SDS011;63134;52.020;4.714;2023-12-04T14:53:03;12.23;;;8.32;;
22786;SDS011;63134;52.020;4.714;2023-12-04T14:56:02;11.98;;;7.97;;
22786;SDS011;63134;52.020;4.714;2023-12-04T14:59:05;13.18;;;9.18;;
22786;SDS011;63134;52.020;4.714;2023-12-04T15:02:10;12.02;;;9.55;;
22786;SDS011;63134;52.020;4.714;2023-12-04T15:05:24;12.05;;;7.88;;
22786;SDS011;63134;52.020;4.714;2023-12-04T15:08:28;9.75;;;8.05;;
22786;SDS011;63134;52.020;4.714;2023-12-04T15:11:49;11.20;;;7.78;;
22786;SDS011;63134;52.020;4.714;2023-12-04T15:14:52;14.15;;;9.25;;
22786;SDS011;63134;52.020;4.714;2023-12-04T15:17:59;10.70;;;8.25;;
22786;SDS011;63134;52.020;4.714;2023-12-04T15:21:05;12.25;;;8.60;;
22786;SDS011;63134;52.020;4.714;2023-12-04T15:23:52;11.65;;;8.60;;
22786;SDS011;63134;52.020;4.714;2023-12-04T15:26:41;13.35;;;8.93;;
22786;SDS011;63134;52.020;4.714;2023-12-04T15:29:35;12.88;;;8.57;;
22786;SDS011;63134;52.020;4.714;2023-12-04T15:32:20;11.60;;;7.72;;
22786;SDS011;63134;52.020;4.714;2023-12-04T15:35:07;11.07;;;8.25;;
22786;SDS011;63134;52.020;4.714;2023-12-04T15:37:58;9.68;;;7.50;;
22786;SDS011;63134;52.020;4.714;2023-12-04T15:40:43;9.60;;;7.75;;
22786;SDS011;63134;52.020;4.714;2023-12-04T15:43:33;9.48;;;6.97;;
22786;SDS011;63134;52.020;4.714;2023-12-04T15:46:19;10.27;;;8.27;;
22786;SDS011;63134;52.020;4.714;2023-12-04T15:49:07;9.23;;;7.32;;
22786;SDS011;63134;52.020;4.714;2023-12-04T15:51:53;11.85;;;8.02;;
22786;SDS011;63134;52.020;4.714;2023-12-04T15:54:40;9.55;;;7.78;;
22786;SDS011;63134;52.020;4.714;2023-12-04T15:57:26;10.93;;;7.97;;
22786;SDS011;63134;52.020;4.714;2023-12-04T16:00:12;11.25;;;8.05;;
22786;SDS011;63134;52.020;4.714;2023-12-04T16:02:58;10.20;;;7.43;;
22786;SDS011;63134;52.020;4.714;2023-12-04T16:05:47;11.65;;;7.90;;
22786;SDS011;63134;52.020;4.714;2023-12-04T16:08:34;11.27;;;9.00;;
22786;SDS011;63134;52.020;4.714;2023-12-04T16:11:19;13.70;;;9.80;;
22786;SDS011;63134;52.020;4.714;2023-12-04T16:14:06;10.43;;;8.70;;
22786;SDS011;63134;52.020;4.714;2023-12-04T16:16:55;10.77;;;9.05;;
22786;SDS011;63134;52.020;4.714;2023-12-04T16:19:43;10.38;;;8.50;;
22786;SDS011;63134;52.020;4.714;2023-12-04T16:22:30;9.23;;;7.70;;
22786;SDS011;63134;52.020;4.714;2023-12-04T16:25:17;12.63;;;9.95;;
22786;SDS011;63134;52.020;4.714;2023-12-04T16:28:05;11.25;;;9.02;;
22786;SDS011;63134;52.020;4.714;2023-12-04T16:30:55;12.15;;;9.82;;
22786;SDS011;63134;52.020;4.714;2023-12-04T16:33:41;12.65;;;9.50;;
22786;SDS011;63134;52.020;4.714;2023-12-04T16:36:27;13.27;;;9.20;;
22786;SDS011;63134;52.020;4.714;2023-12-04T16:39:16;14.13;;;11.05;;